sensor_id;sensor_type;location;lat;lon;timestamp;pressure;altitude;pressure_sealevel;temperature;humidity
14134;BME280;7147;59.364;18.018;2023-01-09T00:00:25;43866.88;;;-143.32;100.00
14134;BME280;7147;59.364;18.018;2023-01-09T00:02:52;44908.44;;;-143.32;100.00
14134;BME280;7147;59.364;18.018;2023-01-09T00:05:19;45871.31;;;-143.32;100.00
14134;BME280;7147;59.364;18.018;2023-01-09T00:07:46;45592.59;;;-143.32;100.00
14134;BME280;7147;59.364;18.018;2023-01-09T00:10:13;44636.06;;;-143.32;100.00
14134;BME280;7147;59.364;18.018;2023-01-09T00:12:40;45902.50;;;-143.32;100.00
14134;BME280;7147;59.364;18.018;2023-01-09T00:15:08;45056.06;;;-143.32;100.00
14134;BME280;7147;59.364;18.018;2023-01-09T00:17:37;45686.19;;;-143.32;100.00
14134;BME280;7147;59.364;18.018;2023-01-09T00:20:06;45964.91;;;-143.32;100.00
14134;BME280;7147;59.364;18.018;2023-01-09T00:22:34;46220.75;;;-143.32;100.00
14134;BME280;7147;59.364;18.018;2023-01-09T00:25:01;47111.16;;;-143.32;100.00
14134;BME280;7147;59.364;18.018;2023-01-09T00:27:30;44577.84;;;-143.32;100.00
14134;BME280;7147;59.364;18.018;2023-01-09T00:29:57;46247.78;;;-143.32;100.00
14134;BME280;7147;59.364;18.018;2023-01-09T00:32:24;46732.50;;;-143.32;100.00
14134;BME280;7147;59.364;18.018;2023-01-09T00:34:53;47206.88;;;-143.32;100.00
14134;BME280;7147;59.364;18.018;2023-01-09T00:37:20;50285.69;;;-143.32;100.00
14134;BME280;7147;59.364;18.018;2023-01-09T00:39:47;49094.63;;;-143.32;100.00
14134;BME280;7147;59.364;18.018;2023-01-09T00:42:17;50204.47;;;-143.32;100.00
14134;BME280;7147;59.364;18.018;2023-01-09T00:44:48;49344.47;;;-143.32;100.00
14134;BME280;7147;59.364;18.018;2023-01-09T00:47:20;48661.63;;;-143.32;100.00
14134;BME280;7147;59.364;18.018;2023-01-09T00:49:49;48278.63;;;-143.32;100.00
14134;BME280;7147;59.364;18.018;2023-01-09T00:52:19;49109.19;;;-143.32;100.00
14134;BME280;7147;59.364;18.018;2023-01-09T00:54:47;50204.47;;;-143.32;100.00
14134;BME280;7147;59.364;18.018;2023-01-09T00:57:14;48809.41;;;-143.32;100.00
14134;BME280;7147;59.364;18.018;2023-01-09T00:59:42;50000.38;;;-143.32;100.00
14134;BME280;7147;59.364;18.018;2023-01-09T01:02:09;50454.38;;;-143.32;100.00
14134;BME280;7147;59.364;18.018;2023-01-09T01:04:36;49700.50;;;-143.32;100.00
14134;BME280;7147;59.364;18.018;2023-01-09T01:07:22;44848.13;;;-143.32;100.00
14134;BME280;7147;59.364;18.018;2023-01-09T01:10:05;45696.59;;;-143.32;100.00
14134;BME280;7147;59.364;18.018;2023-01-09T01:12:32;47082.03;;;-143.32;100.00
14134;BME280;7147;59.364;18.018;2023-01-09T01:14:59;47198.53;;;-143.32;100.00
14134;BME280;7147;59.364;18.018;2023-01-09T01:17:26;48942.66;;;-143.32;100.00
14134;BME280;7147;59.364;18.018;2023-01-09T01:19:53;46792.81;;;-143.32;100.00
14134;BME280;7147;59.364;18.018;2023-01-09T01:22:19;47021.69;;;-143.32;100.00
14134;BME280;7147;59.364;18.018;2023-01-09T01:24:48;48245.31;;;-143.32;100.00
14134;BME280;7147;59.364;18.018;2023-01-09T01:27:15;46774.09;;;-143.32;100.00
14134;BME280;7147;59.364;18.018;2023-01-09T01:29:41;45671.63;;;-143.32;100.00
14134;BME280;7147;59.364;18.018;2023-01-09T01:32:08;42586.63;;;-143.32;100.00
14134;BME280;7147;59.364;18.018;2023-01-09T01:34:36;41709.88;;;-143.32;100.00
14134;BME280;7147;59.364;18.018;2023-01-09T01:37:03;39911.41;;;-143.32;100.00
14134;BME280;7147;59.364;18.018;2023-01-09T01:39:30;38807.03;;;-143.32;100.00
14134;BME280;7147;59.364;18.018;2023-01-09T01:41:58;37481.00;;;-143.32;100.00
14134;BME280;7147;59.364;18.018;2023-01-09T01:44:56;37638.69;;;-143.32;100.00
14134;BME280;7147;59.364;18.018;2023-01-09T01:47:29;38497.78;;;-143.32;100.00
14134;BME280;7147;59.364;18.018;2023-01-09T01:50:03;39045.72;;;-143.32;100.00
14134;BME280;7147;59.364;18.018;2023-01-09T01:52:32;37906.34;;;-143.32;100.00
14134;BME280;7147;59.364;18.018;2023-01-09T01:55:00;38234.22;;;-143.32;100.00
14134;BME280;7147;59.364;18.018;2023-01-09T01:57:31;37416.69;;;-143.32;100.00
14134;BME280;7147;59.364;18.018;2023-01-09T02:00:01;39263.66;;;-143.32;100.00
14134;BME280;7147;59.364;18.018;2023-01-09T02:02:30;38153.28;;;-143.32;100.00
14134;BME280;7147;59.364;18.018;2023-01-09T02:04:58;38717.78;;;-143.32;100.00
14134;BME280;7147;59.364;18.018;2023-01-09T02:07:25;40401.41;;;-143.32;100.00
14134;BME280;7147;59.364;18.018;2023-01-09T02:09:53;40592.47;;;-143.32;100.00
14134;BME280;7147;59.364;18.018;2023-01-09T02:12:21;41331.84;;;-143.32;100.00
14134;BME280;7147;59.364;18.018;2023-01-09T02:14:54;41173.97;;;-143.32;100.00
14134;BME280;7147;59.364;18.018;2023-01-09T02:17:36;35782.25;;;-143.32;100.00
14134;BME280;7147;59.364;18.018;2023-01-09T02:20:28;35409.00;;;-143.32;100.00
14134;BME280;7147;59.364;18.018;2023-01-09T02:23:10;34538.25;;;-143.32;100.00
14134;BME280;7147;59.364;18.018;2023-01-09T02:25:59;33435.66;;;-143.32;100.00
14134;BME280;7147;59.364;18.018;2023-01-09T02:28:47;33468.81;;;-143.32;100.00
14134;BME280;7147;59.364;18.018;2023-01-09T02:31:19;34073.97;;;-143.32;100.00
14134;BME280;7147;59.364;18.018;2023-01-09T02:33:49;35481.56;;;-143.32;100.00
14134;BME280;7147;59.364;18.018;2023-01-09T02:36:21;37690.56;;;-143.32;100.00
14134;BME280;7147;59.364;18.018;2023-01-09T02:39:02;36408.53;;;-143.32;100.00
14134;BME280;7147;59.364;18.018;2023-01-09T02:41:37;37931.25;;;-143.32;100.00
14134;BME280;7147;59.364;18.018;2023-01-09T02:44:14;37505.91;;;-143.32;100.00
14134;BME280;7147;59.364;18.018;2023-01-09T02:46:42;37159.44;;;-143.32;100.00
14134;BME280;7147;59.364;18.018;2023-01-09T02:49:09;37381.41;;;-143.32;100.00
14134;BME280;7147;59.364;18.018;2023-01-09T02:51:48;38688.72;;;-143.32;100.00
14134;BME280;7147;59.364;18.018;2023-01-09T02:54:26;41209.28;;;-143.32;100.00
14134;BME280;7147;59.364;18.018;2023-01-09T02:57:04;42119.16;;;-143.32;100.00
14134;BME280;7147;59.364;18.018;2023-01-09T02:59:45;42989.78;;;-143.32;100.00
14134;BME280;7147;59.364;18.018;2023-01-09T03:02:22;43380.50;;;-143.32;100.00
14134;BME280;7147;59.364;18.018;2023-01-09T03:05:01;43638.22;;;-143.32;100.00
14134;BME280;7147;59.364;18.018;2023-01-09T03:07:31;42509.75;;;-143.32;100.00
14134;BME280;7147;59.364;18.018;2023-01-09T03:10:06;40453.34;;;-143.32;100.00
14134;BME280;7147;59.364;18.018;2023-01-09T03:12:37;38466.66;;;-143.32;100.00
14134;BME280;7147;59.364;18.018;2023-01-09T03:15:10;37622.09;;;-143.32;100.00
14134;BME280;7147;59.364;18.018;2023-01-09T03:17:42;37159.44;;;-143.32;100.00
14134;BME280;7147;59.364;18.018;2023-01-09T03:20:11;37269.38;;;-143.32;100.00
14134;BME280;7147;59.364;18.018;2023-01-09T03:22:41;36976.88;;;-143.32;100.00
14134;BME280;7147;59.364;18.018;2023-01-09T03:25:11;40401.41;;;-143.32;100.00
14134;BME280;7147;59.364;18.018;2023-01-09T03:27:39;41510.47;;;-143.32;100.00
14134;BME280;7147;59.364;18.018;2023-01-09T03:30:08;41151.13;;;-143.32;100.00
14134;BME280;7147;59.364;18.018;2023-01-09T03:32:35;46975.91;;;-143.32;100.00
14134;BME280;7147;59.364;18.018;2023-01-09T03:35:04;42960.69;;;-143.32;100.00
14134;BME280;7147;59.364;18.018;2023-01-09T03:37:31;44542.50;;;-143.32;100.00
14134;BME280;7147;59.364;18.018;2023-01-09T03:39:58;45661.22;;;-143.32;100.00
14134;BME280;7147;59.364;18.018;2023-01-09T03:42:24;46647.19;;;-143.32;100.00
14134;BME280;7147;59.364;18.018;2023-01-09T03:44:51;48180.78;;;-143.32;100.00
14134;BME280;7147;59.364;18.018;2023-01-09T03:47:18;49440.22;;;-143.32;100.00
14134;BME280;7147;59.364;18.018;2023-01-09T03:49:45;48805.25;;;-143.32;100.00
14134;BME280;7147;59.364;18.018;2023-01-09T03:52:13;47868.59;;;-143.32;100.00
14134;BME280;7147;59.364;18.018;2023-01-09T03:54:40;48301.50;;;-143.32;100.00
14134;BME280;7147;59.364;18.018;2023-01-09T03:57:07;46503.66;;;-143.32;100.00
14134;BME280;7147;59.364;18.018;2023-01-09T03:59:34;46179.13;;;-143.32;100.00
14134;BME280;7147;59.364;18.018;2023-01-09T04:02:01;46191.63;;;-143.32;100.00
14134;BME280;7147;59.364;18.018;2023-01-09T04:04:28;46684.66;;;-143.32;100.00
14134;BME280;7147;59.364;18.018;2023-01-09T04:06:55;45700.75;;;-143.32;100.00
14134;BME280;7147;59.364;18.018;2023-01-09T04:09:23;45405.44;;;-143.32;100.00
14134;BME280;7147;59.364;18.018;2023-01-09T04:11:50;43031.34;;;-143.32;100.00
14134;BME280;7147;59.364;18.018;2023-01-09T04:14:17;42297.81;;;-143.32;100.00
14134;BME280;7147;59.364;18.018;2023-01-09T04:16:44;37995.56;;;-143.32;100.00
14134;BME280;7147;59.364;18.018;2023-01-09T04:19:11;38246.66;;;-143.32;100.00
14134;BME280;7147;59.364;18.018;2023-01-09T04:21:38;36680.25;;;-143.32;100.00
14134;BME280;7147;59.364;18.018;2023-01-09T04:24:05;39062.31;;;-143.32;100.00
14134;BME280;7147;59.364;18.018;2023-01-09T04:26:33;39315.56;;;-143.32;100.00
14134;BME280;7147;59.364;18.018;2023-01-09T04:29:00;40013.13;;;-143.32;100.00
14134;BME280;7147;59.364;18.018;2023-01-09T04:31:27;40191.69;;;-143.32;100.00
14134;BME280;7147;59.364;18.018;2023-01-09T04:33:54;41444.00;;;-143.32;100.00
14134;BME280;7147;59.364;18.018;2023-01-09T04:36:21;41500.09;;;-143.32;100.00
14134;BME280;7147;59.364;18.018;2023-01-09T04:38:48;39730.75;;;-143.32;100.00
14134;BME280;7147;59.364;18.018;2023-01-09T04:41:15;39263.66;;;-143.32;100.00
14134;BME280;7147;59.364;18.018;2023-01-09T04:44:04;38755.13;;;-143.32;100.00
14134;BME280;7147;59.364;18.018;2023-01-09T04:46:31;39560.53;;;-143.32;100.00
14134;BME280;7147;59.364;18.018;2023-01-09T04:48:58;38690.78;;;-143.32;100.00
14134;BME280;7147;59.364;18.018;2023-01-09T04:51:25;40098.25;;;-143.32;100.00
14134;BME280;7147;59.364;18.018;2023-01-09T04:53:52;40023.50;;;-143.32;100.00
14134;BME280;7147;59.364;18.018;2023-01-09T04:56:19;42198.09;;;-143.32;100.00
14134;BME280;7147;59.364;18.018;2023-01-09T04:58:46;43251.63;;;-143.32;100.00
14134;BME280;7147;59.364;18.018;2023-01-09T05:01:14;41431.53;;;-143.32;100.00
14134;BME280;7147;59.364;18.018;2023-01-09T05:03:41;43636.13;;;-143.32;100.00
14134;BME280;7147;59.364;18.018;2023-01-09T05:06:08;44403.19;;;-143.32;100.00
14134;BME280;7147;59.364;18.018;2023-01-09T05:08:35;43569.63;;;-143.32;100.00
14134;BME280;7147;59.364;18.018;2023-01-09T05:11:02;43742.16;;;-143.32;100.00
14134;BME280;7147;59.364;18.018;2023-01-09T05:13:29;45950.34;;;-143.32;100.00
14134;BME280;7147;59.364;18.018;2023-01-09T05:15:56;47373.34;;;-143.32;100.00
14134;BME280;7147;59.364;18.018;2023-01-09T05:18:24;46786.59;;;-143.32;100.00
14134;BME280;7147;59.364;18.018;2023-01-09T05:20:51;48043.44;;;-143.32;100.00
14134;BME280;7147;59.364;18.018;2023-01-09T05:23:18;48043.44;;;-143.32;100.00
14134;BME280;7147;59.364;18.018;2023-01-09T05:25:45;48268.22;;;-143.32;100.00
14134;BME280;7147;59.364;18.018;2023-01-09T05:28:12;48064.25;;;-143.32;100.00
14134;BME280;7147;59.364;18.018;2023-01-09T05:30:38;50708.47;;;-143.32;100.00
14134;BME280;7147;59.364;18.018;2023-01-09T05:33:05;51458.41;;;-143.32;100.00
14134;BME280;7147;59.364;18.018;2023-01-09T05:35:34;51554.25;;;-143.32;100.00
14134;BME280;7147;59.364;18.018;2023-01-09T05:38:00;51848.00;;;-143.32;100.00
14134;BME280;7147;59.364;18.018;2023-01-09T05:40:27;51516.75;;;-143.32;100.00
14134;BME280;7147;59.364;18.018;2023-01-09T05:42:54;53417.31;;;-143.32;100.00
14134;BME280;7147;59.364;18.018;2023-01-09T05:45:21;51629.25;;;-143.32;100.00
14134;BME280;7147;59.364;18.018;2023-01-09T05:47:48;51823.00;;;-143.32;100.00
14134;BME280;7147;59.364;18.018;2023-01-09T05:50:15;54021.91;;;-143.32;100.00
14134;BME280;7147;59.364;18.018;2023-01-09T05:52:43;53736.28;;;-143.32;100.00
14134;BME280;7147;59.364;18.018;2023-01-09T05:55:10;54545.25;;;-143.32;100.00
14134;BME280;7147;59.364;18.018;2023-01-09T05:57:37;54710.00;;;-143.32;100.00
14134;BME280;7147;59.364;18.018;2023-01-09T06:00:04;54486.88;;;-143.32;100.00
14134;BME280;7147;59.364;18.018;2023-01-09T06:02:31;54422.22;;;-143.32;100.00
14134;BME280;7147;59.364;18.018;2023-01-09T06:04:57;53240.16;;;-143.32;100.00
14134;BME280;7147;59.364;18.018;2023-01-09T06:07:24;53652.88;;;-143.32;100.00
14134;BME280;7147;59.364;18.018;2023-01-09T06:09:52;46744.97;;;-143.32;100.00
14134;BME280;7147;59.364;18.018;2023-01-09T06:12:19;47460.72;;;-143.32;100.00
14134;BME280;7147;59.364;18.018;2023-01-09T06:14:45;47269.28;;;-143.32;100.00
14134;BME280;7147;59.364;18.018;2023-01-09T06:17:12;49744.25;;;-143.32;100.00
14134;BME280;7147;59.364;18.018;2023-01-09T06:19:38;48345.22;;;-143.32;100.00
14134;BME280;7147;59.364;18.018;2023-01-09T06:22:05;50037.84;;;-143.32;100.00
14134;BME280;7147;59.364;18.018;2023-01-09T06:24:32;51000.09;;;-143.32;100.00
14134;BME280;7147;59.364;18.018;2023-01-09T06:27:00;51475.06;;;-143.32;100.00
14134;BME280;7147;59.364;18.018;2023-01-09T06:29:26;53227.63;;;-143.32;100.00
14134;BME280;7147;59.364;18.018;2023-01-09T06:31:53;53467.34;;;-143.32;100.00
14134;BME280;7147;59.364;18.018;2023-01-09T06:34:20;51866.75;;;-143.32;100.00
14134;BME280;7147;59.364;18.018;2023-01-09T06:36:46;52077.22;;;-143.32;100.00
14134;BME280;7147;59.364;18.018;2023-01-09T06:39:13;52842.03;;;-143.32;100.00
14134;BME280;7147;59.364;18.018;2023-01-09T06:41:40;52873.31;;;-143.32;100.00
14134;BME280;7147;59.364;18.018;2023-01-09T06:44:08;53188.03;;;-143.32;100.00
14134;BME280;7147;59.364;18.018;2023-01-09T06:46:34;51320.91;;;-143.32;100.00
14134;BME280;7147;59.364;18.018;2023-01-09T06:49:01;52525.25;;;-143.32;100.00
14134;BME280;7147;59.364;18.018;2023-01-09T06:51:28;52306.44;;;-143.32;100.00
14134;BME280;7147;59.364;18.018;2023-01-09T06:53:54;52896.22;;;-143.32;100.00
14134;BME280;7147;59.364;18.018;2023-01-09T06:56:21;53073.38;;;-143.32;100.00
14134;BME280;7147;59.364;18.018;2023-01-09T06:58:48;53698.75;;;-143.32;100.00
14134;BME280;7147;59.364;18.018;2023-01-09T07:01:16;54424.31;;;-143.32;100.00
14134;BME280;7147;59.364;18.018;2023-01-09T07:03:42;54511.91;;;-143.32;100.00
14134;BME280;7147;59.364;18.018;2023-01-09T07:06:09;54238.75;;;-143.32;100.00
14134;BME280;7147;59.364;18.018;2023-01-09T07:08:36;54461.84;;;-143.32;100.00
14134;BME280;7147;59.364;18.018;2023-01-09T07:11:02;54499.38;;;-143.32;100.00
14134;BME280;7147;59.364;18.018;2023-01-09T07:13:29;54576.53;;;-143.32;100.00
14134;BME280;7147;59.364;18.018;2023-01-09T07:15:55;56639.50;;;-143.32;100.00
14134;BME280;7147;59.364;18.018;2023-01-09T07:18:23;56069.94;;;-143.32;100.00
14134;BME280;7147;59.364;18.018;2023-01-09T07:20:50;54920.63;;;-143.32;100.00
14134;BME280;7147;59.364;18.018;2023-01-09T07:23:17;55220.94;;;-143.32;100.00
14134;BME280;7147;59.364;18.018;2023-01-09T07:25:44;54812.19;;;-143.32;100.00
14134;BME280;7147;59.364;18.018;2023-01-09T07:28:10;54810.09;;;-143.32;100.00
14134;BME280;7147;59.364;18.018;2023-01-09T07:30:37;54482.69;;;-143.32;100.00
14134;BME280;7147;59.364;18.018;2023-01-09T07:33:03;54482.69;;;-143.32;100.00
14134;BME280;7147;59.364;18.018;2023-01-09T07:35:31;55287.69;;;-143.32;100.00
14134;BME280;7147;59.364;18.018;2023-01-09T07:37:58;55348.19;;;-143.32;100.00
14134;BME280;7147;59.364;18.018;2023-01-09T07:40:25;54684.97;;;-143.32;100.00
14134;BME280;7147;59.364;18.018;2023-01-09T07:42:52;53054.63;;;-143.32;100.00
14134;BME280;7147;59.364;18.018;2023-01-09T07:45:19;52412.72;;;-143.32;100.00
14134;BME280;7147;59.364;18.018;2023-01-09T07:47:45;52279.34;;;-143.32;100.00
14134;BME280;7147;59.364;18.018;2023-01-09T07:50:12;52441.88;;;-143.32;100.00
14134;BME280;7147;59.364;18.018;2023-01-09T07:52:40;52341.88;;;-143.32;100.00
14134;BME280;7147;59.364;18.018;2023-01-09T07:55:09;51627.16;;;-143.32;100.00
14134;BME280;7147;59.364;18.018;2023-01-09T07:57:36;51298.00;;;-143.32;100.00
14134;BME280;7147;59.364;18.018;2023-01-09T08:00:03;47777.03;;;-143.32;100.00
14134;BME280;7147;59.364;18.018;2023-01-09T08:02:31;47618.88;;;-143.32;100.00
14134;BME280;7147;59.364;18.018;2023-01-09T08:04:57;49731.75;;;-143.32;100.00
14134;BME280;7147;59.364;18.018;2023-01-09T08:07:24;48586.69;;;-143.32;100.00
14134;BME280;7147;59.364;18.018;2023-01-09T08:09:52;47469.06;;;-143.32;100.00
14134;BME280;7147;59.364;18.018;2023-01-09T08:12:19;47727.09;;;-143.32;100.00
14134;BME280;7147;59.364;18.018;2023-01-09T08:14:45;46318.50;;;-143.32;100.00
14134;BME280;7147;59.364;18.018;2023-01-09T08:17:12;46418.38;;;-143.32;100.00
14134;BME280;7147;59.364;18.018;2023-01-09T08:19:39;45852.59;;;-143.32;100.00
14134;BME280;7147;59.364;18.018;2023-01-09T08:22:07;45621.72;;;-143.32;100.00
14134;BME280;7147;59.364;18.018;2023-01-09T08:24:34;45403.34;;;-143.32;100.00
14134;BME280;7147;59.364;18.018;2023-01-09T08:27:03;45388.78;;;-143.32;100.00
14134;BME280;7147;59.364;18.018;2023-01-09T08:29:29;44332.53;;;-143.32;100.00
14134;BME280;7147;59.364;18.018;2023-01-09T08:31:56;43097.84;;;-143.32;100.00
14134;BME280;7147;59.364;18.018;2023-01-09T08:34:23;41776.38;;;-143.32;100.00
14134;BME280;7147;59.364;18.018;2023-01-09T08:36:49;41684.97;;;-143.32;100.00
14134;BME280;7147;59.364;18.018;2023-01-09T08:39:17;39301.03;;;-143.32;100.00
14134;BME280;7147;59.364;18.018;2023-01-09T08:41:44;39292.72;;;-143.32;100.00
14134;BME280;7147;59.364;18.018;2023-01-09T08:44:30;37935.41;;;-143.32;100.00
14134;BME280;7147;59.364;18.018;2023-01-09T08:47:14;36474.91;;;-143.32;100.00
14134;BME280;7147;59.364;18.018;2023-01-09T08:49:41;35338.50;;;-143.32;100.00
14134;BME280;7147;59.364;18.018;2023-01-09T08:52:08;35666.13;;;-143.32;100.00
14134;BME280;7147;59.364;18.018;2023-01-09T08:54:34;34778.72;;;-143.32;100.00
14134;BME280;7147;59.364;18.018;2023-01-09T08:57:03;36659.50;;;-143.32;100.00
14134;BME280;7147;59.364;18.018;2023-01-09T08:59:31;37155.28;;;-143.32;100.00
14134;BME280;7147;59.364;18.018;2023-01-09T09:01:58;37765.25;;;-143.32;100.00
14134;BME280;7147;59.364;18.018;2023-01-09T09:04:24;37356.53;;;-143.32;100.00
14134;BME280;7147;59.364;18.018;2023-01-09T09:06:51;34847.13;;;-143.32;100.00
14134;BME280;7147;59.364;18.018;2023-01-09T09:09:18;33711.28;;;-143.32;100.00
14134;BME280;7147;59.364;18.018;2023-01-09T09:11:44;33688.47;;;-143.32;100.00
14134;BME280;7147;59.364;18.018;2023-01-09T09:14:11;32335.50;;;-143.32;100.00
14134;BME280;7147;59.364;18.018;2023-01-09T09:16:56;31053.44;;;-143.32;100.00
14134;BME280;7147;59.364;18.018;2023-01-09T09:19:23;30287.34;;;-143.32;100.00
14134;BME280;7147;59.364;18.018;2023-01-09T09:21:50;30792.53;;;-143.32;100.00
14134;BME280;7147;59.364;18.018;2023-01-09T09:24:16;30457.13;;;-143.32;100.00
14134;BME280;7147;59.364;18.018;2023-01-09T09:26:43;30001.69;;;-143.32;100.00
14134;BME280;7147;59.364;18.018;2023-01-09T09:29:10;29213.06;;;-143.32;100.00
14134;BME280;7147;59.364;18.018;2023-01-09T09:31:37;28962.66;;;-143.32;100.00
14134;BME280;7147;59.364;18.018;2023-01-09T09:34:05;26866.94;;;-143.32;100.00
14134;BME280;7147;59.364;18.018;2023-01-09T09:36:32;28782.63;;;-143.32;100.00
14134;BME280;7147;59.364;18.018;2023-01-09T09:38:59;27799.81;;;-143.32;100.00
14134;BME280;7147;59.364;18.018;2023-01-09T09:41:33;28387.38;;;-143.32;100.00
14134;BME280;7147;59.364;18.018;2023-01-09T09:44:26;32128.34;;;-143.32;100.00
14134;BME280;7147;59.364;18.018;2023-01-09T09:47:15;32863.78;;;-143.32;100.00
14134;BME280;7147;59.364;18.018;2023-01-09T09:49:48;33155.91;;;-143.32;100.00
14134;BME280;7147;59.364;18.018;2023-01-09T09:52:18;32204.97;;;-143.32;100.00
14134;BME280;7147;59.364;18.018;2023-01-09T09:54:49;32362.41;;;-143.32;100.00
14134;BME280;7147;59.364;18.018;2023-01-09T09:57:16;31701.66;;;-143.32;100.00
14134;BME280;7147;59.364;18.018;2023-01-09T09:59:45;31832.13;;;-143.32;100.00
14134;BME280;7147;59.364;18.018;2023-01-09T10:02:22;31094.88;;;-143.32;100.00
14134;BME280;7147;59.364;18.018;2023-01-09T10:04:53;27592.94;;;-143.32;100.00
14134;BME280;7147;59.364;18.018;2023-01-09T10:07:23;26769.75;;;-143.32;100.00
14134;BME280;7147;59.364;18.018;2023-01-09T10:09:51;26004.66;;;-143.32;100.00
14134;BME280;7147;59.364;18.018;2023-01-09T10:12:23;25210.78;;;-143.32;100.00
14134;BME280;7147;59.364;18.018;2023-01-09T10:14:51;23644.25;;;-143.32;100.00
14134;BME280;7147;59.364;18.018;2023-01-09T10:20:10;22555.59;;;-143.32;100.00
14134;BME280;7147;59.364;18.018;2023-01-09T10:22:46;21481.72;;;-143.32;100.00
14134;BME280;7147;59.364;18.018;2023-01-09T10:25:20;21287.63;;;-143.32;100.00
14134;BME280;7147;59.364;18.018;2023-01-09T10:27:55;21310.34;;;-143.32;100.00
14134;BME280;7147;59.364;18.018;2023-01-09T10:30:26;21293.81;;;-143.32;100.00
14134;BME280;7147;59.364;18.018;2023-01-09T10:32:58;21242.19;;;-143.32;100.00
14134;BME280;7147;59.364;18.018;2023-01-09T10:35:35;21240.13;;;-143.32;100.00
14134;BME280;7147;59.364;18.018;2023-01-09T10:38:07;21035.75;;;-143.32;100.00
14134;BME280;7147;59.364;18.018;2023-01-09T10:40:38;20205.91;;;-143.32;100.00
14134;BME280;7147;59.364;18.018;2023-01-09T10:43:08;20255.44;;;-143.32;100.00
14134;BME280;7147;59.364;18.018;2023-01-09T10:45:39;19743.59;;;-143.32;100.00
14134;BME280;7147;59.364;18.018;2023-01-09T10:48:10;20187.31;;;-143.32;100.00
14134;BME280;7147;59.364;18.018;2023-01-09T10:50:43;19978.88;;;-143.32;100.00
14134;BME280;7147;59.364;18.018;2023-01-09T10:53:14;19452.63;;;-143.32;100.00
14134;BME280;7147;59.364;18.018;2023-01-09T10:55:43;19720.91;;;-143.32;100.00
14134;BME280;7147;59.364;18.018;2023-01-09T10:58:12;19923.16;;;-143.32;100.00
14134;BME280;7147;59.364;18.018;2023-01-09T11:00:38;19240.09;;;-143.32;100.00
14134;BME280;7147;59.364;18.018;2023-01-09T11:03:08;17600.09;;;-143.32;100.00
14134;BME280;7147;59.364;18.018;2023-01-09T11:05:35;17513.47;;;-143.32;100.00
14134;BME280;7147;59.364;18.018;2023-01-09T11:08:05;17039.16;;;-143.32;100.00
14134;BME280;7147;59.364;18.018;2023-01-09T11:10:46;16742.22;;;-143.32;100.00
14134;BME280;7147;59.364;18.018;2023-01-09T11:13:13;16505.13;;;-143.32;100.00
14134;BME280;7147;59.364;18.018;2023-01-09T11:15:40;16437.09;;;-143.32;100.00
14134;BME280;7147;59.364;18.018;2023-01-09T11:18:17;16430.91;;;-143.32;100.00
14134;BME280;7147;59.364;18.018;2023-01-09T11:20:44;16080.44;;;-143.32;100.00
14134;BME280;7147;59.364;18.018;2023-01-09T11:23:25;14932.41;;;-143.32;100.00
14134;BME280;7147;59.364;18.018;2023-01-09T11:25:53;13861.00;;;-143.32;100.00
14134;BME280;7147;59.364;18.018;2023-01-09T11:28:20;14433.75;;;-143.32;100.00
14134;BME280;7147;59.364;18.018;2023-01-09T11:30:50;15748.56;;;-143.32;100.00
14134;BME280;7147;59.364;18.018;2023-01-09T11:33:19;15258.03;;;-143.32;100.00
14134;BME280;7147;59.364;18.018;2023-01-09T11:35:54;16769.03;;;-143.32;100.00
14134;BME280;7147;59.364;18.018;2023-01-09T11:38:22;16193.81;;;-143.32;100.00
14134;BME280;7147;59.364;18.018;2023-01-09T11:40:51;16804.09;;;-143.32;100.00
14134;BME280;7147;59.364;18.018;2023-01-09T11:43:19;16272.16;;;-143.32;100.00
14134;BME280;7147;59.364;18.018;2023-01-09T11:45:48;16503.06;;;-143.32;100.00
14134;BME280;7147;59.364;18.018;2023-01-09T11:48:25;16457.72;;;-143.32;100.00
14134;BME280;7147;59.364;18.018;2023-01-09T11:50:54;16610.28;;;-143.32;100.00
14134;BME280;7147;59.364;18.018;2023-01-09T11:53:21;16797.91;;;-143.32;100.00
14134;BME280;7147;59.364;18.018;2023-01-09T11:55:52;13584.97;;;-143.32;100.00
14134;BME280;7147;59.364;18.018;2023-01-09T11:58:20;14190.63;;;-143.32;100.00
14134;BME280;7147;59.364;18.018;2023-01-09T12:00:49;14163.84;;;-143.32;100.00
14134;BME280;7147;59.364;18.018;2023-01-09T12:03:21;13354.28;;;-143.32;100.00
14134;BME280;7147;59.364;18.018;2023-01-09T12:05:54;14378.13;;;-143.32;100.00
14134;BME280;7147;59.364;18.018;2023-01-09T12:08:31;13076.22;;;-143.32;100.00
14134;BME280;7147;59.364;18.018;2023-01-09T12:11:14;12388.41;;;-143.32;100.00
14134;BME280;7147;59.364;18.018;2023-01-09T12:13:48;12472.81;;;-143.32;100.00
14134;BME280;7147;59.364;18.018;2023-01-09T12:16:22;11793.34;;;-143.32;100.00
14134;BME280;7147;59.364;18.018;2023-01-09T12:18:56;12345.16;;;-143.32;100.00
14134;BME280;7147;59.364;18.018;2023-01-09T12:21:31;12233.97;;;-143.32;100.00
14134;BME280;7147;59.364;18.018;2023-01-09T12:24:01;12271.03;;;-143.32;100.00
14134;BME280;7147;59.364;18.018;2023-01-09T12:26:36;12822.91;;;-143.32;100.00
14134;BME280;7147;59.364;18.018;2023-01-09T12:29:12;12808.50;;;-143.32;100.00
14134;BME280;7147;59.364;18.018;2023-01-09T12:34:35;12579.91;;;-143.32;100.00
14134;BME280;7147;59.364;18.018;2023-01-09T12:37:10;12262.78;;;-143.32;100.00
14134;BME280;7147;59.364;18.018;2023-01-09T12:39:41;12036.31;;;-143.32;100.00
14134;BME280;7147;59.364;18.018;2023-01-09T12:45:02;12048.66;;;-143.32;100.00
14134;BME280;7147;59.364;18.018;2023-01-09T12:47:40;11974.53;;;-143.32;100.00
14134;BME280;7147;59.364;18.018;2023-01-09T12:50:13;12081.59;;;-143.32;100.00